createdAt,value
2019-05-29T00:00:12.914Z,1.70
2019-05-29T00:02:40.963Z,1.80
2019-05-29T00:05:10.164Z,2.30
2019-05-29T00:07:38.728Z,2.37
2019-05-29T00:10:08.829Z,2.30
2019-05-29T00:12:37.483Z,2.10
2019-05-29T00:15:08.270Z,2.17
2019-05-29T00:17:36.910Z,2.20
2019-05-29T00:20:06.700Z,2.17
2019-05-29T00:22:35.229Z,1.73
2019-05-29T00:25:04.621Z,2.00
2019-05-29T00:27:33.055Z,2.20
2019-05-29T00:30:01.505Z,2.07
2019-05-29T00:32:29.957Z,2.03
2019-05-29T00:34:58.526Z,2.10
2019-05-29T00:37:27.081Z,2.10
2019-05-29T00:39:55.627Z,2.33
2019-05-29T00:42:24.174Z,2.13
2019-05-29T00:44:52.683Z,2.17
2019-05-29T00:47:21.128Z,2.30
2019-05-29T00:49:49.661Z,1.70
2019-05-29T00:52:18.429Z,2.10
2019-05-29T00:54:46.994Z,2.17
2019-05-29T00:57:15.512Z,2.30
2019-05-29T00:59:44.055Z,2.30
2019-05-29T01:02:13.739Z,2.70
2019-05-29T01:04:42.323Z,1.90
2019-05-29T01:07:12.189Z,2.10
2019-05-29T01:09:40.857Z,2.17
2019-05-29T01:12:09.301Z,2.40
2019-05-29T01:14:49.539Z,2.20
2019-05-29T01:17:07.935Z,2.40
2019-05-29T01:19:36.377Z,2.57
2019-05-29T01:22:04.939Z,2.40
2019-05-29T01:24:33.450Z,2.40
2019-05-29T01:27:01.947Z,2.70
2019-05-29T01:29:30.395Z,2.40
2019-05-29T01:31:58.857Z,3.03
2019-05-29T01:34:27.318Z,2.83
2019-05-29T01:36:55.846Z,2.50
2019-05-29T01:39:24.284Z,2.60
2019-05-29T01:41:52.807Z,2.40
2019-05-29T01:44:21.517Z,2.67
2019-05-29T01:46:50.048Z,2.50
2019-05-29T01:49:19.524Z,2.73
2019-05-29T01:51:48.235Z,2.80
2019-05-29T01:54:17.538Z,2.60
2019-05-29T01:56:46.114Z,2.70
2019-05-29T01:59:15.617Z,2.67
2019-05-29T02:01:44.389Z,2.60
2019-05-29T02:04:12.909Z,3.20
2019-05-29T02:06:41.336Z,2.33
2019-05-29T02:09:09.811Z,2.60
2019-05-29T02:11:38.270Z,3.23
2019-05-29T02:14:06.866Z,3.00
2019-05-29T02:16:35.395Z,2.60
2019-05-29T02:19:03.851Z,2.30
2019-05-29T02:21:32.272Z,3.00
2019-05-29T02:24:00.786Z,2.73
2019-05-29T02:26:29.234Z,2.83
2019-05-29T02:28:57.703Z,2.43
2019-05-29T02:31:28.409Z,2.80
2019-05-29T02:33:56.311Z,2.83
2019-05-29T02:36:26.675Z,2.77
2019-05-29T02:38:55.023Z,2.73
2019-05-29T02:41:24.311Z,2.80
2019-05-29T02:43:53.735Z,3.00
2019-05-29T02:46:23.819Z,3.37
2019-05-29T02:48:52.411Z,3.37
2019-05-29T02:51:22.099Z,2.93
2019-05-29T02:53:50.719Z,3.27
2019-05-29T02:56:20.631Z,2.80
2019-05-29T02:58:49.354Z,3.13
2019-05-29T03:01:18.196Z,2.90
2019-05-29T03:03:46.709Z,3.70
2019-05-29T03:06:15.252Z,2.97
2019-05-29T03:08:43.765Z,3.10
2019-05-29T03:11:12.379Z,3.10
2019-05-29T03:13:40.980Z,3.20
2019-05-29T03:16:12.371Z,3.20
2019-05-29T03:18:39.742Z,3.27
2019-05-29T03:21:08.253Z,3.00
2019-05-29T03:23:36.710Z,3.13
2019-05-29T03:26:05.293Z,2.93
2019-05-29T03:28:35.075Z,3.27
2019-05-29T03:31:03.905Z,3.50
2019-05-29T03:33:40.833Z,3.20
2019-05-29T03:36:02.793Z,3.20
2019-05-29T03:38:32.674Z,3.53
2019-05-29T03:41:01.449Z,4.33
2019-05-29T03:43:31.119Z,3.43
2019-05-29T03:46:00.064Z,3.00
2019-05-29T03:48:29.825Z,3.63
2019-05-29T03:50:58.659Z,2.33
2019-05-29T03:53:27.198Z,3.13
2019-05-29T03:55:55.667Z,2.60
2019-05-29T03:58:24.120Z,2.73
2019-05-29T04:00:52.584Z,3.20
2019-05-29T04:03:21.021Z,2.70
2019-05-29T04:05:49.472Z,2.90
2019-05-29T04:08:17.914Z,2.93
2019-05-29T04:10:46.434Z,2.90
2019-05-29T04:13:14.964Z,2.77
2019-05-29T04:15:44.587Z,2.30
2019-05-29T04:18:13.111Z,2.30
2019-05-29T04:20:48.626Z,2.53
2019-05-29T04:23:18.690Z,1.90
2019-05-29T04:25:48.667Z,2.00
2019-05-29T04:28:17.562Z,1.80
2019-05-29T04:30:46.028Z,1.93
2019-05-29T04:33:14.616Z,1.87
2019-05-29T04:35:43.050Z,2.10
2019-05-29T04:38:11.613Z,2.10
2019-05-29T04:40:40.068Z,2.07
2019-05-29T04:43:08.518Z,2.37
2019-05-29T04:45:39.130Z,2.27
2019-05-29T04:48:07.149Z,1.90
2019-05-29T04:50:37.972Z,2.03
2019-05-29T04:53:06.017Z,2.27
2019-05-29T04:55:34.796Z,1.77
2019-05-29T04:58:03.356Z,1.77
2019-05-29T05:00:32.979Z,1.50
2019-05-29T05:03:03.081Z,1.70
2019-05-29T05:05:31.596Z,1.75
2019-05-29T05:08:03.080Z,1.47
2019-05-29T05:10:40.938Z,1.37
2019-05-29T05:13:09.978Z,1.42
2019-05-29T05:15:38.544Z,1.42
2019-05-29T05:18:07.805Z,1.67
2019-05-29T05:20:36.451Z,1.37
2019-05-29T05:23:08.873Z,1.52
2019-05-29T05:25:38.298Z,1.40
2019-05-29T05:28:06.942Z,1.22
2019-05-29T05:30:36.357Z,1.40
2019-05-29T05:33:05.228Z,1.57
2019-05-29T05:35:34.645Z,1.30
2019-05-29T05:38:03.437Z,1.42
2019-05-29T05:40:32.712Z,1.52
2019-05-29T05:43:02.130Z,1.10
2019-05-29T05:45:30.907Z,1.30
2019-05-29T05:47:59.444Z,1.25
2019-05-29T05:50:27.979Z,1.87
2019-05-29T05:52:56.419Z,1.50
2019-05-29T05:55:24.873Z,1.07
2019-05-29T05:57:53.406Z,1.40
2019-05-29T06:00:33.989Z,1.30
2019-05-29T06:03:02.665Z,1.10
2019-05-29T06:05:32.065Z,1.30
2019-05-29T06:08:00.890Z,1.40
2019-05-29T06:10:29.347Z,1.52
2019-05-29T06:12:57.790Z,1.20
2019-05-29T06:15:26.409Z,1.40
2019-05-29T06:18:10.449Z,1.67
2019-05-29T06:20:25.097Z,1.27
2019-05-29T06:22:53.641Z,1.30
2019-05-29T06:25:22.796Z,1.50
2019-05-29T06:27:51.294Z,2.50
2019-05-29T06:30:22.512Z,1.30
2019-05-29T06:32:50.990Z,1.40
2019-05-29T06:35:19.497Z,1.50
2019-05-29T06:37:47.952Z,1.10
2019-05-29T06:40:38.079Z,1.83
2019-05-29T06:43:11.657Z,1.63
2019-05-29T06:45:38.450Z,1.37
2019-05-29T06:48:08.580Z,1.57
2019-05-29T06:50:37.431Z,1.90
2019-05-29T06:53:06.248Z,1.50
2019-05-29T06:55:35.786Z,0.90
2019-05-29T06:58:04.417Z,1.10
2019-05-29T07:00:35.619Z,1.20
2019-05-29T07:03:03.123Z,1.10
2019-05-29T07:05:31.583Z,0.80
2019-05-29T07:08:16.692Z,1.20
2019-05-29T07:10:30.277Z,1.20
2019-05-29T07:12:58.779Z,1.10
2019-05-29T07:15:27.304Z,1.17
2019-05-29T07:17:55.741Z,0.97
2019-05-29T07:20:24.193Z,0.90
2019-05-29T07:22:52.670Z,1.30
2019-05-29T07:25:21.222Z,0.90
2019-05-29T07:27:49.665Z,1.40
2019-05-29T07:30:18.982Z,1.05
2019-05-29T07:32:56.747Z,1.00
2019-05-29T07:35:17.767Z,1.03
2019-05-29T07:37:46.229Z,1.07
2019-05-29T07:40:15.026Z,1.13
2019-05-29T07:42:50.149Z,1.17
2019-05-29T07:45:14.054Z,1.30
2019-05-29T07:47:42.862Z,0.90
2019-05-29T07:50:13.026Z,1.23
2019-05-29T07:52:43.078Z,1.37
2019-05-29T07:55:12.040Z,1.00
2019-05-29T07:57:40.845Z,1.00
2019-05-29T08:00:10.861Z,0.80
2019-05-29T08:02:39.446Z,1.10
2019-05-29T08:05:09.183Z,1.20
2019-05-29T08:07:37.628Z,1.00
2019-05-29T08:10:09.695Z,0.93
2019-05-29T08:12:42.435Z,1.10
2019-05-29T08:15:08.731Z,1.47
2019-05-29T08:17:37.256Z,1.40
2019-05-29T08:20:08.142Z,0.80
2019-05-29T08:22:36.878Z,1.10
2019-05-29T08:25:06.403Z,1.00
2019-05-29T08:27:34.978Z,0.93
2019-05-29T08:30:05.730Z,1.30
2019-05-29T08:32:34.335Z,1.33
2019-05-29T08:35:03.187Z,1.07
2019-05-29T08:37:31.639Z,1.30
2019-05-29T08:40:00.082Z,1.00
2019-05-29T08:42:28.621Z,1.23
2019-05-29T08:44:57.108Z,2.80
2019-05-29T08:47:28.625Z,1.50
2019-05-29T08:50:16.741Z,1.80
2019-05-29T08:52:27.303Z,4.80
2019-05-29T08:54:55.812Z,1.10
2019-05-29T08:57:24.252Z,1.70
2019-05-29T08:59:52.758Z,1.30
2019-05-29T09:02:21.278Z,1.07
2019-05-29T09:04:51.760Z,1.87
2019-05-29T09:07:20.031Z,1.60
2019-05-29T09:09:49.122Z,1.20
2019-05-29T09:12:17.637Z,1.30
2019-05-29T09:14:46.133Z,1.73
2019-05-29T09:17:14.783Z,1.10
2019-05-29T09:19:44.949Z,1.10
2019-05-29T09:22:14.851Z,1.00
2019-05-29T09:24:43.609Z,1.22
2019-05-29T09:27:12.760Z,0.93
2019-05-29T09:29:42.328Z,1.02
2019-05-29T09:32:11.107Z,1.20
2019-05-29T09:34:39.546Z,1.27
2019-05-29T09:37:08.146Z,1.40
2019-05-29T09:39:36.669Z,1.20
2019-05-29T09:42:05.275Z,1.00
2019-05-29T09:44:38.788Z,1.00
2019-05-29T09:47:04.128Z,1.50
2019-05-29T09:49:32.663Z,1.07
2019-05-29T09:52:02.047Z,1.10
2019-05-29T09:54:30.575Z,1.00
2019-05-29T09:56:59.632Z,1.30
2019-05-29T09:59:29.441Z,1.10
2019-05-29T10:02:00.384Z,1.43
2019-05-29T10:04:28.140Z,1.10
2019-05-29T10:06:57.586Z,1.20
2019-05-29T10:09:26.097Z,1.30
2019-05-29T10:11:58.035Z,0.97
2019-05-29T10:14:24.848Z,1.20
2019-05-29T10:16:56.033Z,1.27
2019-05-29T10:19:23.628Z,1.27
2019-05-29T10:21:52.068Z,1.00
2019-05-29T10:24:20.586Z,1.03
2019-05-29T10:26:49.046Z,1.00
2019-05-29T10:29:17.569Z,1.20
2019-05-29T10:31:47.860Z,1.10
2019-05-29T10:34:17.967Z,1.23
2019-05-29T10:36:49.692Z,0.80
2019-05-29T10:39:16.782Z,1.30
2019-05-29T10:41:46.531Z,0.97
2019-05-29T10:44:15.562Z,1.60
2019-05-29T10:46:46.018Z,1.33
2019-05-29T10:49:14.438Z,1.30
2019-05-29T10:52:00.240Z,1.10
2019-05-29T10:54:13.215Z,1.40
2019-05-29T10:56:41.799Z,1.13
2019-05-29T10:59:10.285Z,1.00
2019-05-29T11:01:38.779Z,1.10
2019-05-29T11:04:07.446Z,1.00
2019-05-29T11:06:40.243Z,0.90
2019-05-29T11:09:12.940Z,0.77
2019-05-29T11:11:41.475Z,1.10
2019-05-29T11:14:10.021Z,1.53
2019-05-29T11:16:39.817Z,1.00
2019-05-29T11:19:08.994Z,1.33
2019-05-29T11:21:37.507Z,1.40
2019-05-29T11:24:06.031Z,1.20
2019-05-29T11:26:34.525Z,1.63
2019-05-29T11:29:03.218Z,1.47
2019-05-29T11:31:31.816Z,1.63
2019-05-29T11:34:00.345Z,1.03
2019-05-29T11:36:29.064Z,1.03
2019-05-29T11:39:03.201Z,1.57
2019-05-29T11:41:27.719Z,1.20
2019-05-29T11:43:56.909Z,1.20
2019-05-29T11:46:25.717Z,1.80
2019-05-29T11:48:55.267Z,1.30
2019-05-29T11:51:23.998Z,1.20
2019-05-29T11:53:53.469Z,1.20
2019-05-29T11:56:22.484Z,1.17
2019-05-29T11:58:51.027Z,1.10
2019-05-29T12:01:19.623Z,1.67
2019-05-29T12:04:15.543Z,1.23
2019-05-29T12:06:18.408Z,1.37
2019-05-29T12:08:46.966Z,1.00
2019-05-29T12:11:15.540Z,0.90
2019-05-29T12:13:44.193Z,1.30
2019-05-29T12:16:12.695Z,1.10
2019-05-29T12:18:41.164Z,1.40
2019-05-29T12:21:09.659Z,1.10
2019-05-29T12:23:38.179Z,0.93
2019-05-29T12:26:19.782Z,0.83
2019-05-29T12:28:36.832Z,1.07
2019-05-29T12:31:05.302Z,1.00
2019-05-29T12:33:33.840Z,1.13
2019-05-29T12:36:03.319Z,1.03
2019-05-29T12:38:32.104Z,1.70
2019-05-29T12:41:01.783Z,1.20
2019-05-29T12:43:30.498Z,1.07
2019-05-29T12:46:00.083Z,1.37
2019-05-29T12:48:28.758Z,1.03
2019-05-29T12:50:58.309Z,1.03
2019-05-29T12:53:30.853Z,0.90
2019-05-29T12:55:58.329Z,1.07
2019-05-29T12:58:26.960Z,1.10
2019-05-29T13:00:56.437Z,1.70
2019-05-29T13:03:25.199Z,1.10
2019-05-29T13:05:54.135Z,1.00
2019-05-29T13:08:22.751Z,1.70
2019-05-29T13:10:51.292Z,1.17
2019-05-29T13:13:19.852Z,1.10
2019-05-29T13:15:48.461Z,1.00
2019-05-29T13:18:21.020Z,1.20
2019-05-29T13:20:49.586Z,1.50
2019-05-29T13:23:20.987Z,1.10
2019-05-29T13:25:49.468Z,1.17
2019-05-29T13:28:18.057Z,1.33
2019-05-29T13:30:49.573Z,1.40
2019-05-29T13:33:18.131Z,1.10
2019-05-29T13:35:46.751Z,1.50
2019-05-29T13:38:15.400Z,1.00
2019-05-29T13:40:44.018Z,1.37
2019-05-29T13:43:15.554Z,1.77
2019-05-29T13:45:42.768Z,1.20
2019-05-29T13:48:11.268Z,1.30
2019-05-29T13:50:39.779Z,1.20
2019-05-29T13:53:08.307Z,1.17
2019-05-29T13:55:36.827Z,1.40
2019-05-29T13:58:05.798Z,1.03
2019-05-29T14:00:35.205Z,1.50
2019-05-29T14:03:04.808Z,1.10
2019-05-29T14:05:33.681Z,1.20
2019-05-29T14:08:02.749Z,1.10
2019-05-29T14:10:31.407Z,1.30
2019-05-29T14:13:00.908Z,1.60
2019-05-29T14:15:29.662Z,1.17
2019-05-29T14:17:58.123Z,1.40
2019-05-29T14:20:26.562Z,1.00
2019-05-29T14:22:55.440Z,1.13
2019-05-29T14:25:23.905Z,1.20
2019-05-29T14:27:52.362Z,1.10
2019-05-29T14:30:21.049Z,1.33
2019-05-29T14:32:49.516Z,1.00
2019-05-29T14:35:18.138Z,1.30
2019-05-29T14:37:46.588Z,1.03
2019-05-29T14:40:17.110Z,1.30
2019-05-29T14:42:45.557Z,1.10
2019-05-29T14:45:14.464Z,1.20
2019-05-29T14:47:42.909Z,1.00
2019-05-29T14:50:13.348Z,1.00
2019-05-29T14:52:42.193Z,1.03
2019-05-29T14:55:16.271Z,0.80
2019-05-29T14:57:41.463Z,1.30
2019-05-29T15:00:24.122Z,1.03
2019-05-29T15:02:44.120Z,0.83
2019-05-29T15:05:14.775Z,1.13
2019-05-29T15:07:42.935Z,1.00
2019-05-29T15:10:22.735Z,1.10
2019-05-29T15:12:42.031Z,0.93
2019-05-29T15:15:13.499Z,0.90
2019-05-29T15:17:41.413Z,1.73
2019-05-29T15:20:12.342Z,1.33
2019-05-29T15:22:40.615Z,0.77
2019-05-29T15:25:18.486Z,0.43
2019-05-29T15:27:39.997Z,0.57
2019-05-29T15:30:10.960Z,0.80
2019-05-29T15:32:39.276Z,0.60
2019-05-29T15:35:13.758Z,0.50
2019-05-29T15:37:38.703Z,0.60
2019-05-29T15:40:10.875Z,0.60
2019-05-29T15:42:39.578Z,0.80
2019-05-29T15:45:09.847Z,0.80
2019-05-29T15:47:38.571Z,0.50
2019-05-29T15:50:11.410Z,0.80
2019-05-29T15:52:40.267Z,0.80
2019-05-29T15:55:27.012Z,0.70
2019-05-29T15:57:41.066Z,0.80
2019-05-29T16:00:13.380Z,0.80
2019-05-29T16:02:42.076Z,0.90
2019-05-29T16:05:13.143Z,0.70
2019-05-29T16:07:42.014Z,0.70
2019-05-29T16:10:16.451Z,0.73
2019-05-29T16:12:43.404Z,0.80
2019-05-29T16:15:13.280Z,1.00
2019-05-29T16:17:41.978Z,0.60
2019-05-29T16:20:12.312Z,0.83
2019-05-29T16:22:41.011Z,0.80
2019-05-29T16:25:11.369Z,0.80
2019-05-29T16:27:39.813Z,0.67
2019-05-29T16:30:09.695Z,1.03
2019-05-29T16:32:38.270Z,0.70
2019-05-29T16:35:07.583Z,1.00
2019-05-29T16:37:36.027Z,1.00
2019-05-29T16:40:14.183Z,1.10
2019-05-29T16:42:42.833Z,0.90
2019-05-29T16:45:14.213Z,0.70
2019-05-29T16:47:42.826Z,0.70
2019-05-29T16:50:12.946Z,1.10
2019-05-29T16:52:41.577Z,0.87
2019-05-29T16:55:10.759Z,0.63
2019-05-29T16:57:39.230Z,1.73
2019-05-29T17:00:13.660Z,1.00
2019-05-29T17:02:42.310Z,1.00
2019-05-29T17:05:11.181Z,1.10
2019-05-29T17:07:39.624Z,1.10
2019-05-29T17:10:09.406Z,0.70
2019-05-29T17:12:37.869Z,1.10
2019-05-29T17:15:11.171Z,1.30
2019-05-29T17:17:39.689Z,1.40
2019-05-29T17:20:09.338Z,0.97
2019-05-29T17:22:37.870Z,0.90
2019-05-29T17:25:06.740Z,0.83
2019-05-29T17:27:35.221Z,0.90
2019-05-29T17:30:05.196Z,0.90
2019-05-29T17:32:33.713Z,1.10
2019-05-29T17:35:02.455Z,0.87
2019-05-29T17:37:31.058Z,0.80
2019-05-29T17:39:59.551Z,1.00
2019-05-29T17:42:28.016Z,1.20
2019-05-29T17:44:56.483Z,1.50
2019-05-29T17:47:25.751Z,1.10
2019-05-29T17:49:54.379Z,1.10
2019-05-29T17:52:23.844Z,1.00
2019-05-29T17:54:52.443Z,1.27
2019-05-29T17:57:21.934Z,1.00
2019-05-29T17:59:50.640Z,0.90
2019-05-29T18:02:20.257Z,1.30
2019-05-29T18:04:48.812Z,0.90
2019-05-29T18:07:18.293Z,1.50
2019-05-29T18:09:46.939Z,1.50
2019-05-29T18:12:15.388Z,1.20
2019-05-29T18:14:43.924Z,0.80
2019-05-29T18:17:12.411Z,1.23
2019-05-29T18:19:40.906Z,0.90
2019-05-29T18:22:09.420Z,1.30
2019-05-29T18:24:37.881Z,1.87
2019-05-29T18:27:06.326Z,1.23
2019-05-29T18:29:34.811Z,1.00
2019-05-29T18:32:03.330Z,0.90
2019-05-29T18:34:31.859Z,1.00
2019-05-29T18:37:00.307Z,1.27
2019-05-29T18:39:28.875Z,1.17
2019-05-29T18:41:57.373Z,1.00
2019-05-29T18:44:26.892Z,1.00
2019-05-29T18:46:55.562Z,1.03
2019-05-29T18:49:24.333Z,1.00
2019-05-29T18:51:52.939Z,0.90
2019-05-29T18:54:21.638Z,1.73
2019-05-29T18:57:13.738Z,1.40
2019-05-29T18:59:21.500Z,0.77
2019-05-29T19:01:50.120Z,1.10
2019-05-29T19:04:18.664Z,2.17
2019-05-29T19:06:47.379Z,1.63
2019-05-29T19:09:15.964Z,1.03
2019-05-29T19:11:44.491Z,1.50
2019-05-29T19:14:12.944Z,1.30
2019-05-29T19:16:41.444Z,1.00
2019-05-29T19:19:09.999Z,1.03
2019-05-29T19:21:38.442Z,1.47
2019-05-29T19:24:06.978Z,1.47
2019-05-29T19:26:36.862Z,1.17
2019-05-29T19:29:05.429Z,1.40
2019-05-29T19:31:33.896Z,1.73
2019-05-29T19:34:02.417Z,1.57
2019-05-29T19:36:31.847Z,1.57
2019-05-29T19:39:00.390Z,1.50
2019-05-29T19:41:30.091Z,1.30
2019-05-29T19:43:58.609Z,1.00
2019-05-29T19:46:27.069Z,1.97
2019-05-29T19:48:55.630Z,1.90
2019-05-29T19:51:25.240Z,1.90
2019-05-29T19:53:53.906Z,2.20
2019-05-29T19:56:22.426Z,1.57
2019-05-29T19:58:50.872Z,1.70
2019-05-29T20:01:30.594Z,1.40
2019-05-29T20:03:49.573Z,1.33
2019-05-29T20:06:18.028Z,2.20
2019-05-29T20:08:46.479Z,1.90
2019-05-29T20:11:15.058Z,1.50
2019-05-29T20:13:43.695Z,1.80
2019-05-29T20:16:12.211Z,2.10
2019-05-29T20:18:40.681Z,2.90
2019-05-29T20:21:09.187Z,2.57
2019-05-29T20:23:38.826Z,2.83
2019-05-29T20:26:07.574Z,2.80
2019-05-29T20:28:36.369Z,2.10
2019-05-29T20:31:11.751Z,2.13
2019-05-29T20:33:38.656Z,2.23
2019-05-29T20:36:07.252Z,2.00
2019-05-29T20:38:37.109Z,2.23
2019-05-29T20:41:06.011Z,2.30
2019-05-29T20:43:35.518Z,3.20
2019-05-29T20:46:04.033Z,2.33
2019-05-29T20:48:32.575Z,2.67
2019-05-29T20:51:01.096Z,2.07
2019-05-29T20:53:29.546Z,3.20
2019-05-29T20:56:27.159Z,3.33
2019-05-29T20:58:57.156Z,3.10
2019-05-29T21:01:27.192Z,2.93
2019-05-29T21:03:55.791Z,3.37
2019-05-29T21:06:24.714Z,3.40
2019-05-29T21:08:53.169Z,3.70
2019-05-29T21:11:21.632Z,3.63
2019-05-29T21:13:50.077Z,3.77
2019-05-29T21:16:18.612Z,3.60
2019-05-29T21:18:48.595Z,4.30
2019-05-29T21:21:17.200Z,3.53
2019-05-29T21:23:45.988Z,3.70
2019-05-29T21:26:16.507Z,3.90
2019-05-29T21:28:50.077Z,4.27
2019-05-29T21:31:15.156Z,3.57
2019-05-29T21:33:45.865Z,3.60
2019-05-29T21:36:13.769Z,3.60
2019-05-29T21:38:42.329Z,3.50
2019-05-29T21:41:10.884Z,3.00
2019-05-29T21:43:40.549Z,2.90
2019-05-29T21:46:09.162Z,2.50
2019-05-29T21:48:38.921Z,2.40
2019-05-29T21:51:07.590Z,1.93
2019-05-29T21:53:37.160Z,2.03
2019-05-29T21:56:05.769Z,2.30
2019-05-29T21:58:34.226Z,2.17
2019-05-29T22:01:03.172Z,2.10
2019-05-29T22:03:31.704Z,2.30
2019-05-29T22:06:00.191Z,2.40
2019-05-29T22:08:28.701Z,2.80
2019-05-29T22:10:57.526Z,3.20
2019-05-29T22:13:26.179Z,3.43
2019-05-29T22:15:54.812Z,3.53
2019-05-29T22:18:23.360Z,2.87
2019-05-29T22:20:52.915Z,3.60
2019-05-29T22:23:21.622Z,3.50
2019-05-29T22:25:51.182Z,3.53
2019-05-29T22:28:19.795Z,3.30
2019-05-29T22:30:48.222Z,2.70
2019-05-29T22:33:16.691Z,3.67
2019-05-29T22:35:45.194Z,3.17
2019-05-29T22:38:13.720Z,3.63
2019-05-29T22:40:42.157Z,3.13
2019-05-29T22:43:10.659Z,3.23
2019-05-29T22:45:39.108Z,2.67
2019-05-29T22:48:07.618Z,2.30
2019-05-29T22:50:36.080Z,2.50
2019-05-29T22:53:04.669Z,2.60
2019-05-29T22:55:33.191Z,2.53
2019-05-29T22:58:02.251Z,2.40
2019-05-29T23:00:32.000Z,2.40
2019-05-29T23:03:00.569Z,2.63
2019-05-29T23:05:29.816Z,3.00
2019-05-29T23:07:58.322Z,2.43
2019-05-29T23:10:26.843Z,2.80
2019-05-29T23:12:56.220Z,2.70
2019-05-29T23:15:25.025Z,2.70
2019-05-29T23:17:54.497Z,3.00
2019-05-29T23:20:23.103Z,3.00
2019-05-29T23:22:52.580Z,3.10
2019-05-29T23:25:21.158Z,2.87
2019-05-29T23:27:49.620Z,3.10
2019-05-29T23:30:18.271Z,2.73
2019-05-29T23:32:46.719Z,2.70
2019-05-29T23:35:15.172Z,2.30
2019-05-29T23:37:43.613Z,2.53
2019-05-29T23:40:13.902Z,2.20
2019-05-29T23:42:42.357Z,2.30
2019-05-29T23:45:11.785Z,2.03
2019-05-29T23:47:40.317Z,2.20
2019-05-29T23:50:09.470Z,1.73
2019-05-29T23:52:38.288Z,2.37
2019-05-29T23:55:09.989Z,2.30
2019-05-29T23:57:38.433Z,2.10
